createdAt,value
2017-11-30T00:01:08.968Z,13.10
2017-11-30T00:03:37.103Z,13.33
2017-11-30T00:06:05.264Z,14.10
2017-11-30T00:08:34.237Z,13.53
2017-11-30T00:11:02.371Z,12.80
2017-11-30T00:13:30.491Z,13.60
2017-11-30T00:15:59.366Z,12.30
2017-11-30T00:18:28.278Z,13.50
2017-11-30T00:20:56.453Z,13.50
2017-11-30T00:23:25.347Z,13.73
2017-11-30T00:25:54.113Z,13.33
2017-11-30T00:28:23.017Z,15.10
2017-11-30T00:30:51.171Z,13.97
2017-11-30T00:33:20.073Z,14.07
2017-11-30T00:35:48.990Z,15.37
2017-11-30T00:38:17.137Z,14.70
2017-11-30T00:40:46.028Z,13.10
2017-11-30T00:43:26.769Z,14.10
2017-11-30T00:45:54.880Z,15.80
2017-11-30T00:48:23.017Z,14.57
2017-11-30T00:50:51.150Z,15.70
2017-11-30T00:53:19.291Z,13.03
2017-11-30T00:55:47.405Z,14.03
2017-11-30T00:58:15.584Z,15.80
2017-11-30T01:00:43.704Z,14.40
2017-11-30T01:03:11.864Z,13.67
2017-11-30T01:05:39.972Z,14.80
2017-11-30T01:08:08.121Z,15.30
2017-11-30T01:10:36.263Z,13.33
2017-11-30T01:13:04.381Z,13.20
2017-11-30T01:15:32.546Z,16.50
2017-11-30T01:18:00.668Z,14.27
2017-11-30T01:20:28.804Z,14.87
2017-11-30T01:22:56.929Z,14.80
2017-11-30T01:25:25.109Z,13.60
2017-11-30T01:27:54.043Z,14.60
2017-11-30T01:30:22.169Z,13.53
2017-11-30T01:32:51.052Z,14.37
2017-11-30T01:35:19.959Z,14.03
2017-11-30T01:37:48.837Z,15.00
2017-11-30T01:40:17.736Z,14.00
2017-11-30T01:42:47.492Z,13.90
2017-11-30T01:45:15.663Z,13.87
2017-11-30T01:47:43.786Z,12.70
2017-11-30T01:50:12.672Z,13.83
2017-11-30T01:52:41.581Z,13.13
2017-11-30T01:55:09.698Z,13.60
2017-11-30T01:57:37.873Z,13.43
2017-11-30T02:00:06.023Z,13.57
2017-11-30T02:02:34.206Z,14.57
2017-11-30T02:05:02.361Z,13.27
2017-11-30T02:07:30.517Z,14.90
2017-11-30T02:09:59.402Z,15.13
2017-11-30T02:12:28.413Z,13.37
2017-11-30T02:14:56.562Z,14.50
2017-11-30T02:17:25.476Z,14.40
2017-11-30T02:19:53.607Z,15.07
2017-11-30T02:22:22.343Z,12.90
2017-11-30T02:24:50.499Z,13.40
2017-11-30T02:27:19.405Z,13.07
2017-11-30T02:29:47.549Z,12.83
2017-11-30T02:32:16.438Z,13.17
2017-11-30T02:34:44.596Z,13.13
2017-11-30T02:37:12.726Z,14.00
2017-11-30T02:39:40.868Z,14.50
2017-11-30T02:42:09.936Z,12.50
2017-11-30T02:44:39.813Z,12.93
2017-11-30T03:00:02.777Z,14.33
2017-11-30T03:02:31.658Z,13.90
2017-11-30T03:04:59.807Z,13.40
2017-11-30T03:07:27.920Z,12.17
2017-11-30T03:09:56.808Z,12.07
2017-11-30T03:12:25.704Z,12.43
2017-11-30T03:14:53.824Z,11.87
2017-11-30T03:17:21.970Z,10.67
2017-11-30T03:19:50.088Z,10.17
2017-11-30T03:22:18.241Z,10.87
2017-11-30T03:24:46.362Z,10.50
2017-11-30T03:27:15.270Z,10.50
2017-11-30T03:29:43.386Z,10.30
2017-11-30T03:32:12.459Z,9.83
2017-11-30T03:34:40.570Z,10.70
2017-11-30T03:37:10.224Z,9.80
2017-11-30T03:39:38.496Z,11.40
2017-11-30T03:42:07.462Z,12.20
2017-11-30T03:44:36.373Z,10.70
2017-11-30T03:47:04.504Z,11.37
2017-11-30T03:49:32.635Z,11.37
2017-11-30T03:52:00.816Z,11.50
2017-11-30T03:54:28.938Z,10.97
2017-11-30T03:56:57.831Z,11.27
2017-11-30T03:59:26.728Z,11.03
2017-11-30T04:01:55.618Z,12.10
2017-11-30T04:04:24.497Z,12.17
2017-11-30T04:06:52.657Z,13.43
2017-11-30T04:09:20.769Z,13.23
2017-11-30T04:11:48.920Z,12.93
2017-11-30T04:14:17.813Z,14.80
2017-11-30T04:16:45.965Z,13.10
2017-11-30T04:19:15.051Z,13.80
2017-11-30T04:21:43.182Z,12.97
2017-11-30T04:24:11.299Z,13.77
2017-11-30T04:26:39.440Z,13.40
2017-11-30T04:29:07.582Z,12.80
2017-11-30T04:31:36.677Z,14.50
2017-11-30T04:34:04.795Z,15.90
2017-11-30T04:36:32.941Z,16.87
2017-11-30T04:39:01.064Z,15.87
2017-11-30T04:41:29.956Z,15.03
2017-11-30T04:43:58.856Z,18.40
2017-11-30T04:46:26.986Z,16.90
2017-11-30T04:48:55.126Z,19.00
2017-11-30T04:51:23.272Z,18.90
2017-11-30T04:53:52.172Z,19.17
2017-11-30T04:56:20.309Z,19.03
2017-11-30T04:58:48.441Z,17.83
2017-11-30T05:01:16.552Z,17.13
2017-11-30T05:03:44.697Z,18.23
2017-11-30T05:06:12.848Z,17.23
2017-11-30T05:08:40.971Z,16.07
2017-11-30T05:11:09.109Z,16.77
2017-11-30T05:13:37.220Z,16.13
2017-11-30T05:16:07.066Z,15.97
2017-11-30T05:18:35.581Z,16.80
2017-11-30T05:21:03.706Z,16.83
2017-11-30T05:23:31.832Z,17.33
2017-11-30T05:26:00.289Z,17.80
2017-11-30T05:28:28.461Z,16.40
2017-11-30T05:30:56.585Z,16.43
2017-11-30T05:33:24.722Z,16.90
2017-11-30T05:35:52.835Z,16.90
2017-11-30T05:38:21.918Z,16.43
2017-11-30T05:40:51.533Z,19.03
2017-11-30T05:43:20.456Z,18.13
2017-11-30T05:45:48.626Z,17.70
2017-11-30T05:48:16.761Z,20.87
2017-11-30T05:50:45.666Z,18.93
2017-11-30T05:53:14.578Z,18.07
2017-11-30T05:55:42.698Z,17.73
2017-11-30T05:58:11.725Z,17.87
2017-11-30T06:00:39.841Z,15.93
2017-11-30T06:03:08.750Z,18.00
2017-11-30T06:05:36.878Z,17.57
2017-11-30T06:08:05.016Z,16.33
2017-11-30T06:10:33.913Z,14.70
2017-11-30T06:13:02.824Z,14.60
2017-11-30T06:15:31.008Z,14.80
2017-11-30T06:17:59.164Z,15.63
2017-11-30T06:20:28.033Z,14.07
2017-11-30T06:22:56.934Z,14.43
2017-11-30T06:25:25.056Z,13.13
2017-11-30T06:27:53.773Z,14.30
2017-11-30T06:30:22.666Z,12.23
2017-11-30T06:32:51.569Z,14.30
2017-11-30T06:35:19.708Z,13.40
2017-11-30T06:37:47.908Z,14.13
2017-11-30T06:40:16.792Z,14.87
2017-11-30T06:42:45.685Z,14.13
2017-11-30T06:45:14.600Z,13.73
2017-11-30T06:47:42.747Z,12.47
2017-11-30T06:50:10.963Z,14.00
2017-11-30T06:52:39.097Z,13.90
2017-11-30T06:55:07.997Z,15.00
2017-11-30T06:57:37.601Z,13.97
2017-11-30T07:00:06.503Z,13.43
2017-11-30T07:02:34.627Z,14.63
2017-11-30T07:05:02.781Z,12.37
2017-11-30T07:07:30.905Z,14.40
2017-11-30T07:09:59.056Z,13.47
2017-11-30T07:12:27.180Z,13.70
2017-11-30T07:14:55.331Z,14.50
2017-11-30T07:17:23.473Z,15.37
2017-11-30T07:19:52.392Z,14.57
2017-11-30T07:22:21.267Z,13.80
2017-11-30T07:24:50.181Z,13.87
2017-11-30T07:27:18.323Z,14.10
2017-11-30T07:29:46.462Z,13.50
2017-11-30T07:32:14.581Z,14.37
2017-11-30T07:34:42.746Z,14.80
2017-11-30T07:37:11.671Z,14.57
2017-11-30T07:39:39.812Z,13.80
2017-11-30T07:42:08.696Z,14.33
2017-11-30T07:44:37.605Z,14.73
2017-11-30T07:47:05.933Z,12.57
2017-11-30T07:49:35.254Z,13.10
2017-11-30T07:52:03.466Z,13.20
2017-11-30T07:54:31.584Z,14.77
2017-11-30T07:56:59.805Z,14.30
2017-11-30T07:59:27.948Z,14.57
2017-11-30T08:01:56.083Z,14.47
2017-11-30T08:04:24.211Z,14.83
2017-11-30T08:06:52.395Z,15.50
2017-11-30T08:09:21.637Z,14.63
2017-11-30T08:11:49.769Z,15.50
2017-11-30T08:14:17.923Z,16.10
2017-11-30T08:16:46.079Z,15.13
2017-11-30T08:19:14.285Z,15.73
2017-11-30T08:21:42.577Z,15.63
2017-11-30T08:24:11.650Z,15.80
2017-11-30T08:26:39.790Z,15.70
2017-11-30T08:29:07.945Z,15.47
2017-11-30T08:31:36.076Z,16.27
2017-11-30T08:34:05.055Z,16.10
2017-11-30T08:36:33.372Z,15.43
2017-11-30T08:39:01.529Z,15.87
2017-11-30T08:41:29.646Z,15.87
2017-11-30T08:43:58.553Z,15.17
2017-11-30T08:46:27.436Z,15.37
2017-11-30T08:48:56.925Z,14.80
2017-11-30T08:51:25.073Z,14.50
2017-11-30T08:53:53.209Z,16.00
2017-11-30T08:56:21.327Z,15.70
2017-11-30T08:58:49.468Z,15.57
2017-11-30T09:01:17.582Z,15.30
2017-11-30T09:03:45.734Z,14.67
2017-11-30T09:06:13.858Z,15.47
2017-11-30T09:08:42.012Z,14.90
2017-11-30T09:11:10.900Z,13.63
2017-11-30T09:13:40.241Z,15.20
2017-11-30T09:16:08.376Z,14.30
2017-11-30T09:18:37.276Z,14.77
2017-11-30T09:21:06.228Z,13.40
2017-11-30T09:23:34.390Z,14.47
2017-11-30T09:26:03.522Z,14.20
2017-11-30T09:28:31.638Z,12.77
2017-11-30T09:30:59.794Z,13.80
2017-11-30T09:33:27.929Z,13.53
2017-11-30T09:35:56.078Z,14.77
2017-11-30T09:38:24.200Z,15.37
2017-11-30T09:40:53.114Z,14.87
2017-11-30T09:43:21.238Z,15.37
2017-11-30T09:45:49.534Z,17.13
2017-11-30T09:48:19.217Z,15.80
2017-11-30T09:50:47.366Z,14.23
2017-11-30T09:53:15.504Z,14.43
2017-11-30T09:55:43.630Z,15.47
2017-11-30T09:58:11.766Z,16.20
2017-11-30T10:00:39.905Z,15.40
2017-11-30T10:03:08.786Z,16.27
2017-11-30T10:05:37.699Z,16.30
2017-11-30T10:08:05.833Z,18.60
2017-11-30T10:10:33.961Z,18.37
2017-11-30T10:13:02.134Z,15.47
2017-11-30T10:15:30.255Z,17.10
2017-11-30T10:17:58.399Z,16.57
2017-11-30T10:20:26.517Z,17.20
2017-11-30T10:22:54.657Z,18.03
2017-11-30T10:25:22.775Z,18.63
2017-11-30T10:27:50.905Z,19.03
2017-11-30T10:30:19.047Z,16.70
2017-11-30T10:32:47.194Z,18.93
2017-11-30T10:35:15.314Z,18.37
2017-11-30T10:37:43.454Z,17.60
2017-11-30T10:40:11.577Z,17.80
2017-11-30T10:42:40.498Z,16.90
2017-11-30T10:45:08.610Z,15.80
2017-11-30T10:47:36.757Z,17.40
2017-11-30T10:50:04.878Z,16.13
2017-11-30T10:52:33.799Z,16.87
2017-11-30T10:55:01.939Z,17.70
2017-11-30T10:57:30.092Z,17.37
2017-11-30T10:59:58.236Z,20.47
2017-11-30T11:02:27.354Z,18.77
2017-11-30T11:04:55.479Z,18.07
2017-11-30T11:07:23.622Z,20.23
2017-11-30T11:09:51.781Z,17.83
2017-11-30T11:12:19.922Z,19.97
2017-11-30T11:14:48.050Z,16.80
2017-11-30T11:17:16.950Z,19.10
2017-11-30T11:19:45.102Z,18.70
2017-11-30T11:22:14.381Z,18.93
2017-11-30T11:24:42.508Z,21.53
2017-11-30T11:27:10.654Z,19.90
2017-11-30T11:29:39.573Z,19.57
2017-11-30T11:32:07.766Z,19.90
2017-11-30T11:34:37.473Z,21.47
2017-11-30T11:37:05.609Z,21.50
2017-11-30T11:39:34.502Z,22.17
2017-11-30T11:42:03.416Z,20.77
2017-11-30T11:44:31.549Z,19.37
2017-11-30T11:47:00.478Z,18.97
2017-11-30T11:49:28.598Z,21.30
2017-11-30T11:51:58.387Z,21.57
2017-11-30T11:54:27.306Z,22.00
2017-11-30T11:56:56.230Z,20.53
2017-11-30T11:59:24.370Z,20.67
2017-11-30T12:01:52.524Z,21.77
2017-11-30T12:04:20.657Z,21.20
2017-11-30T12:06:48.847Z,19.60
2017-11-30T12:09:16.978Z,14.30
2017-11-30T12:11:45.890Z,9.43
2017-11-30T12:14:14.081Z,7.37
2017-11-30T12:16:42.210Z,6.63
2017-11-30T12:19:10.343Z,7.70
2017-11-30T12:21:39.238Z,7.17
2017-11-30T12:24:07.388Z,7.57
2017-11-30T12:26:36.565Z,7.90
2017-11-30T12:29:05.495Z,7.37
2017-11-30T12:31:33.618Z,8.40
2017-11-30T12:34:02.540Z,7.77
2017-11-30T12:36:30.714Z,8.87
2017-11-30T12:38:58.892Z,10.63
2017-11-30T12:54:21.892Z,20.83
2017-11-30T12:56:50.926Z,19.00
2017-11-30T12:59:19.074Z,21.60
2017-11-30T13:01:48.784Z,21.73
2017-11-30T13:04:27.899Z,21.80
2017-11-30T13:06:56.022Z,19.60
2017-11-30T13:09:24.189Z,19.97
2017-11-30T13:11:52.357Z,20.17
2017-11-30T13:14:20.497Z,17.10
2017-11-30T13:16:49.401Z,18.73
2017-11-30T13:19:17.538Z,18.37
2017-11-30T13:21:45.665Z,17.93
2017-11-30T13:24:13.843Z,18.10
2017-11-30T13:26:42.776Z,20.37
2017-11-30T13:29:11.679Z,19.20
2017-11-30T13:31:40.603Z,18.83
2017-11-30T13:34:08.739Z,19.10
2017-11-30T13:36:37.647Z,19.53
2017-11-30T13:39:06.568Z,21.73
2017-11-30T13:41:34.698Z,20.30
2017-11-30T13:44:02.927Z,22.07
2017-11-30T13:46:31.047Z,20.57
2017-11-30T13:49:00.719Z,21.67
2017-11-30T13:51:28.859Z,20.20
2017-11-30T13:53:57.102Z,20.03
2017-11-30T13:56:25.215Z,18.60
2017-11-30T13:58:54.197Z,18.40
2017-11-30T14:01:22.373Z,18.07
2017-11-30T14:03:51.193Z,18.83
2017-11-30T14:06:19.450Z,19.73
2017-11-30T14:08:47.994Z,17.60
2017-11-30T14:11:16.936Z,17.10
2017-11-30T14:13:45.046Z,19.10
2017-11-30T14:16:13.959Z,18.63
2017-11-30T14:18:42.660Z,17.50
2017-11-30T14:21:11.813Z,14.73
2017-11-30T14:23:41.743Z,14.80
2017-11-30T14:26:09.876Z,15.53
2017-11-30T14:28:38.016Z,15.97
2017-11-30T14:31:06.140Z,14.57
2017-11-30T14:33:34.290Z,15.40
2017-11-30T14:36:02.425Z,16.50
2017-11-30T14:38:30.576Z,16.23
2017-11-30T14:40:59.460Z,17.30
2017-11-30T14:43:28.394Z,17.47
2017-11-30T14:45:56.533Z,16.57
2017-11-30T14:48:25.428Z,18.40
2017-11-30T14:50:53.588Z,15.07
2017-11-30T14:53:22.502Z,15.87
2017-11-30T14:55:50.650Z,16.40
2017-11-30T14:58:19.553Z,15.77
2017-11-30T15:00:49.291Z,15.90
2017-11-30T15:03:17.412Z,15.70
2017-11-30T15:05:45.568Z,15.73
2017-11-30T15:08:15.197Z,18.03
2017-11-30T15:10:44.112Z,18.87
2017-11-30T15:13:12.236Z,13.63
2017-11-30T15:15:40.398Z,14.13
2017-11-30T15:18:09.316Z,13.70
2017-11-30T15:20:37.462Z,13.03
2017-11-30T15:23:05.586Z,13.50
2017-11-30T15:25:33.709Z,13.23
2017-11-30T15:28:01.865Z,13.77
2017-11-30T15:30:29.998Z,14.50
2017-11-30T15:32:58.161Z,11.93
2017-11-30T15:35:27.068Z,15.47
2017-11-30T15:37:55.200Z,11.37
2017-11-30T15:40:23.349Z,12.60
2017-11-30T15:42:51.474Z,12.03
2017-11-30T15:45:19.654Z,12.77
2017-11-30T15:47:47.797Z,11.23
2017-11-30T15:50:16.714Z,10.60
2017-11-30T15:52:44.879Z,8.57
2017-11-30T15:55:13.697Z,9.10
2017-11-30T15:57:44.479Z,8.30
2017-11-30T16:00:12.650Z,7.83
2017-11-30T16:02:40.768Z,7.90
2017-11-30T16:05:09.467Z,8.03
2017-11-30T16:07:37.724Z,8.00
2017-11-30T16:10:05.879Z,8.67
2017-11-30T16:12:34.783Z,9.63
2017-11-30T16:15:02.945Z,7.73
2017-11-30T16:17:31.094Z,9.40
2017-11-30T16:19:59.257Z,9.40
2017-11-30T16:22:27.429Z,10.80
2017-11-30T16:24:56.327Z,11.13
2017-11-30T16:27:24.494Z,9.00
2017-11-30T16:29:53.400Z,8.83
2017-11-30T16:32:21.562Z,8.97
2017-11-30T16:34:49.782Z,8.57
2017-11-30T16:37:17.925Z,8.10
2017-11-30T16:39:46.824Z,8.10
2017-11-30T16:42:15.845Z,7.07
2017-11-30T16:44:43.972Z,7.33
2017-11-30T16:47:13.640Z,8.00
2017-11-30T16:49:41.760Z,8.23
2017-11-30T16:52:10.677Z,6.93
2017-11-30T16:54:38.815Z,7.20
2017-11-30T16:57:06.974Z,7.83
2017-11-30T16:59:35.092Z,8.50
2017-11-30T17:02:03.238Z,6.73
2017-11-30T17:04:32.163Z,8.20
2017-11-30T17:07:00.300Z,8.40
2017-11-30T17:09:29.234Z,8.20
2017-11-30T17:11:57.364Z,9.50
2017-11-30T17:14:26.955Z,8.03
2017-11-30T17:16:55.099Z,8.00
2017-11-30T17:19:23.279Z,9.03
2017-11-30T17:21:52.917Z,9.77
2017-11-30T17:24:21.088Z,8.37
2017-11-30T17:26:49.211Z,9.10
2017-11-30T17:29:17.371Z,8.70
2017-11-30T17:31:45.527Z,9.50
2017-11-30T17:34:14.431Z,9.93
2017-11-30T17:36:42.659Z,9.70
2017-11-30T17:39:10.800Z,9.60
2017-11-30T17:41:40.840Z,9.53
2017-11-30T17:44:09.183Z,9.10
2017-11-30T17:49:27.677Z,9.80
2017-11-30T17:51:56.638Z,10.00
2017-11-30T17:54:27.907Z,10.63
2017-11-30T17:57:04.425Z,10.47
2017-11-30T17:59:39.160Z,9.50
2017-11-30T18:02:13.404Z,10.87
2017-11-30T18:04:44.962Z,10.40
2017-11-30T18:10:18.353Z,8.73
2017-11-30T18:16:05.875Z,9.67
2017-11-30T18:18:44.374Z,10.83
2017-11-30T18:21:21.860Z,9.83
2017-11-30T18:23:51.726Z,9.40
2017-11-30T18:26:21.661Z,9.83
2017-11-30T18:28:50.796Z,10.17
2017-11-30T18:31:19.023Z,9.93
2017-11-30T18:33:47.354Z,11.00
2017-11-30T18:36:16.299Z,9.87
2017-11-30T18:38:48.840Z,9.63
2017-11-30T18:41:21.069Z,9.30
2017-11-30T18:46:50.650Z,10.50
2017-11-30T18:49:18.836Z,10.77
2017-11-30T18:55:03.295Z,9.40
2017-11-30T19:14:21.186Z,11.37
2017-11-30T19:32:18.993Z,12.10
2017-11-30T19:38:12.125Z,11.70
2017-11-30T19:40:56.257Z,11.00
2017-11-30T20:24:48.604Z,12.10
2017-11-30T20:27:16.909Z,10.50
2017-11-30T20:46:00.045Z,13.13
2017-11-30T21:03:53.880Z,21.33
2017-11-30T21:19:58.646Z,12.30
2017-11-30T21:25:25.317Z,13.77
2017-11-30T23:12:03.275Z,12.00
2017-11-30T23:29:27.652Z,13.23
2017-11-30T23:32:07.979Z,11.87
2017-11-30T23:59:22.290Z,13.63
